Trident — WDF5944 — position and weather

sailwx.info

Track history (hours):
 
Tides and Currents Weather Stations Pressure Air Temp Water Temp Dewpoint Dewpoint Depression Visibility Wind Speed Wind Dir Waves Ship Positions

Trident

Owner: Marquette Transportation Company Offshore, LLC, Jefferson, LA. More information available from US FCC via Universal Licensing System and Coast Guard Vessel Documentation Center.

Last reported at 2017-Sep-17 02:28 UTC. Time now 2017-Sep-23 14:55 UTC.
Position N 29°21' W 094°21'.

Length 24 m; draft 3 m.

Type: Towing. MMSI: 367468960.

Date/timePositionNaut miles runAvg speedWind from/ knotsBaromVisibWave heightAir tempDewpointWater temp
2017-Sep-17 02:28N 29°21' W 094°21'30 5.6
2017-Sep-16 21:07N 29°31' W 094°53'1 6.7
2017-Sep-16 21:00N 29°32' W 094°53'3 6.6
2017-Sep-16 20:30N 29°34' W 094°56'3 6.5
2017-Sep-16 20:00N 29°37' W 094°58'3 5.3
2017-Sep-16 19:30N 29°40' W 094°58'3 6.2
2017-Sep-16 18:59N 29°42' W 095°01'3 5.3
2017-Sep-16 18:29N 29°44' W 095°03'3 0.2
2017-Sep-16 04:49N 29°44' W 095°07'0 0.1
2017-Sep-16 02:46N 29°44' W 095°06'4 5.2
2017-Sep-16 01:55N 29°44' W 095°02'3 5.9
2017-Sep-16 01:25N 29°41' W 094°59'5 6.1
2017-Sep-16 00:37N 29°37' W 094°58'0 1.4
2017-Sep-16 00:31N 29°37' W 094°58'3 6.8
2017-Sep-16 00:00N 29°34' W 094°55'4 7.0
2017-Sep-15 23:30N 29°31' W 094°53'  
2017-Sep-12 01:16N 29°32' W 090°53'2 7.9
2017-Sep-12 00:57N 29°32' W 090°50'3 7.7
2017-Sep-12 00:30N 29°32' W 090°46'3 5.8
2017-Sep-12 00:00N 29°34' W 090°44'1 1.2
2017-Sep-11 23:30N 29°34' W 090°43'2 3.1
2017-Sep-11 23:00N 29°33' W 090°42'4 7.3
2017-Sep-11 22:30N 29°29' W 090°43'4 7.3
2017-Sep-11 21:58N 29°25' W 090°43'  
2017-Sep-09 05:10N 29°25' W 090°43'1 6.9
2017-Sep-09 05:01N 29°26' W 090°43'3 6.8
2017-Sep-09 04:30N 29°29' W 090°43'3 6.6
2017-Sep-09 04:01N 29°33' W 090°42'1 2.1
2017-Sep-09 03:30N 29°34' W 090°42'0 0.0
2017-Sep-09 03:00N 29°34' W 090°42'0 0.0
2017-Sep-09 02:30N 29°34' W 090°42'0 0.0
2017-Sep-09 02:00N 29°34' W 090°42'0 0.0
2017-Sep-09 01:30N 29°34' W 090°42'0 0.0
2017-Sep-09 01:00N 29°34' W 090°42'0 0.0
2017-Sep-09 00:27N 29°34' W 090°42'0 0.0
2017-Sep-09 00:00N 29°34' W 090°42'0 0.0
2017-Sep-08 23:27N 29°34' W 090°42'0 0.0
2017-Sep-08 23:00N 29°34' W 090°42'0 0.0
2017-Sep-08 22:30N 29°34' W 090°42'0 0.0
2017-Sep-08 22:00N 29°34' W 090°42'0 0.0
2017-Sep-08 21:30N 29°34' W 090°42'0 0.0
2017-Sep-08 21:00N 29°34' W 090°42'0 0.0
2017-Sep-08 20:30N 29°34' W 090°42'0 0.0
2017-Sep-08 20:00N 29°34' W 090°42'0 0.0
2017-Sep-08 19:27N 29°34' W 090°42'0 0.0
2017-Sep-08 19:00N 29°34' W 090°42'0 0.0
2017-Sep-08 18:30N 29°34' W 090°42'0 0.0
2017-Sep-08 17:57N 29°34' W 090°42'0 0.0
2017-Sep-08 17:30N 29°34' W 090°42'0 0.0
2017-Sep-08 17:00N 29°34' W 090°42'0 0.0
2017-Sep-08 16:30N 29°34' W 090°42'0 0.0
2017-Sep-08 16:00N 29°34' W 090°42'0 0.0
2017-Sep-08 15:30N 29°34' W 090°42'0 0.0
2017-Sep-08 15:00N 29°34' W 090°42'0 0.0
2017-Sep-08 14:30N 29°34' W 090°42'0 0.0
2017-Sep-08 14:00N 29°34' W 090°42'0 0.0
2017-Sep-08 13:30N 29°34' W 090°42'0 0.0
2017-Sep-08 13:00N 29°34' W 090°42'0 0.0
2017-Sep-08 12:30N 29°34' W 090°42'0 0.0
2017-Sep-08 12:00N 29°34' W 090°42'0 0.0
2017-Sep-08 11:30N 29°34' W 090°42'0 0.0
2017-Sep-08 11:00N 29°34' W 090°42'0 0.0
2017-Sep-08 10:30N 29°34' W 090°42'0 0.0
2017-Sep-08 10:00N 29°34' W 090°42'0 0.0
2017-Sep-08 09:30N 29°34' W 090°42'0 0.0
2017-Sep-08 09:00N 29°34' W 090°42'0 0.0
2017-Sep-08 08:30N 29°34' W 090°42'0 0.0
2017-Sep-08 08:00N 29°34' W 090°42'0 0.0
2017-Sep-08 07:30N 29°34' W 090°42'0 0.0
2017-Sep-08 06:57N 29°34' W 090°42'0 0.0
2017-Sep-08 06:27N 29°34' W 090°42'0 0.0
2017-Sep-08 06:00N 29°34' W 090°42'0 0.0
2017-Sep-08 05:30N 29°34' W 090°42'0 0.1
2017-Sep-08 05:01N 29°34' W 090°42'0 0.3
2017-Sep-08 04:30N 29°34' W 090°42'1 1.2
2017-Sep-08 04:01N 29°33' W 090°42'3 6.2
2017-Sep-08 03:31N 29°30' W 090°43'3 6.3
2017-Sep-08 03:00N 29°27' W 090°43'3 6.2
2017-Sep-08 02:27N 29°23' W 090°44'  
Track history (hours):
 
Tides and Currents Weather Stations Pressure Air Temp Water Temp Dewpoint Dewpoint Depression Visibility Wind Speed Wind Dir Waves Ship Positions

Trident

Owner: Marquette Transportation Company Offshore, LLC, Jefferson, LA. More information available from US FCC via Universal Licensing System and Coast Guard Vessel Documentation Center.

Last reported at 2017-Sep-17 02:28 UTC. Time now 2017-Sep-23 14:55 UTC.
Position N 29°21' W 094°21'.

Length 24 m; draft 3 m.

Type: Towing. MMSI: 367468960.

Date/timePositionNaut miles runAvg speedWind from/ knotsBaromVisibWave heightAir tempDewpointWater temp
2017-Sep-17 02:28N 29°21' W 094°21'30 5.6
2017-Sep-16 21:07N 29°31' W 094°53'1 6.7
2017-Sep-16 21:00N 29°32' W 094°53'3 6.6
2017-Sep-16 20:30N 29°34' W 094°56'3 6.5
2017-Sep-16 20:00N 29°37' W 094°58'3 5.3
2017-Sep-16 19:30N 29°40' W 094°58'3 6.2
2017-Sep-16 18:59N 29°42' W 095°01'3 5.3
2017-Sep-16 18:29N 29°44' W 095°03'3 0.2
2017-Sep-16 04:49N 29°44' W 095°07'0 0.1
2017-Sep-16 02:46N 29°44' W 095°06'4 5.2
2017-Sep-16 01:55N 29°44' W 095°02'3 5.9
2017-Sep-16 01:25N 29°41' W 094°59'5 6.1
2017-Sep-16 00:37N 29°37' W 094°58'0 1.4
2017-Sep-16 00:31N 29°37' W 094°58'3 6.8
2017-Sep-16 00:00N 29°34' W 094°55'4 7.0
2017-Sep-15 23:30N 29°31' W 094°53'  
2017-Sep-12 01:16N 29°32' W 090°53'2 7.9
2017-Sep-12 00:57N 29°32' W 090°50'3 7.7
2017-Sep-12 00:30N 29°32' W 090°46'3 5.8
2017-Sep-12 00:00N 29°34' W 090°44'1 1.2
2017-Sep-11 23:30N 29°34' W 090°43'2 3.1
2017-Sep-11 23:00N 29°33' W 090°42'4 7.3
2017-Sep-11 22:30N 29°29' W 090°43'4 7.3
2017-Sep-11 21:58N 29°25' W 090°43'  
2017-Sep-09 05:10N 29°25' W 090°43'1 6.9
2017-Sep-09 05:01N 29°26' W 090°43'3 6.8
2017-Sep-09 04:30N 29°29' W 090°43'3 6.6
2017-Sep-09 04:01N 29°33' W 090°42'1 2.1
2017-Sep-09 03:30N 29°34' W 090°42'0 0.0
2017-Sep-09 03:00N 29°34' W 090°42'0 0.0
2017-Sep-09 02:30N 29°34' W 090°42'0 0.0
2017-Sep-09 02:00N 29°34' W 090°42'0 0.0
2017-Sep-09 01:30N 29°34' W 090°42'0 0.0
2017-Sep-09 01:00N 29°34' W 090°42'0 0.0
2017-Sep-09 00:27N 29°34' W 090°42'0 0.0
2017-Sep-09 00:00N 29°34' W 090°42'0 0.0
2017-Sep-08 23:27N 29°34' W 090°42'0 0.0
2017-Sep-08 23:00N 29°34' W 090°42'0 0.0
2017-Sep-08 22:30N 29°34' W 090°42'0 0.0
2017-Sep-08 22:00N 29°34' W 090°42'0 0.0
2017-Sep-08 21:30N 29°34' W 090°42'0 0.0
2017-Sep-08 21:00N 29°34' W 090°42'0 0.0
2017-Sep-08 20:30N 29°34' W 090°42'0 0.0
2017-Sep-08 20:00N 29°34' W 090°42'0 0.0
2017-Sep-08 19:27N 29°34' W 090°42'0 0.0
2017-Sep-08 19:00N 29°34' W 090°42'0 0.0
2017-Sep-08 18:30N 29°34' W 090°42'0 0.0
2017-Sep-08 17:57N 29°34' W 090°42'0 0.0
2017-Sep-08 17:30N 29°34' W 090°42'0 0.0
2017-Sep-08 17:00N 29°34' W 090°42'0 0.0
2017-Sep-08 16:30N 29°34' W 090°42'0 0.0
2017-Sep-08 16:00N 29°34' W 090°42'0 0.0
2017-Sep-08 15:30N 29°34' W 090°42'0 0.0
2017-Sep-08 15:00N 29°34' W 090°42'0 0.0
2017-Sep-08 14:30N 29°34' W 090°42'0 0.0
2017-Sep-08 14:00N 29°34' W 090°42'0 0.0
2017-Sep-08 13:30N 29°34' W 090°42'0 0.0
2017-Sep-08 13:00N 29°34' W 090°42'0 0.0
2017-Sep-08 12:30N 29°34' W 090°42'0 0.0
2017-Sep-08 12:00N 29°34' W 090°42'0 0.0
2017-Sep-08 11:30N 29°34' W 090°42'0 0.0
2017-Sep-08 11:00N 29°34' W 090°42'0 0.0
2017-Sep-08 10:30N 29°34' W 090°42'0 0.0
2017-Sep-08 10:00N 29°34' W 090°42'0 0.0
2017-Sep-08 09:30N 29°34' W 090°42'0 0.0
2017-Sep-08 09:00N 29°34' W 090°42'0 0.0
2017-Sep-08 08:30N 29°34' W 090°42'0 0.0
2017-Sep-08 08:00N 29°34' W 090°42'0 0.0
2017-Sep-08 07:30N 29°34' W 090°42'0 0.0
2017-Sep-08 06:57N 29°34' W 090°42'0 0.0
2017-Sep-08 06:27N 29°34' W 090°42'0 0.0
2017-Sep-08 06:00N 29°34' W 090°42'0 0.0
2017-Sep-08 05:30N 29°34' W 090°42'0 0.1
2017-Sep-08 05:01N 29°34' W 090°42'0 0.3
2017-Sep-08 04:30N 29°34' W 090°42'1 1.2
2017-Sep-08 04:01N 29°33' W 090°42'3 6.2
2017-Sep-08 03:31N 29°30' W 090°43'3 6.3
2017-Sep-08 03:00N 29°27' W 090°43'3 6.2
2017-Sep-08 02:27N 29°23' W 090°44'  

Dump ship's entire track history